sensor_id;sensor_type;location;lat;lon;timestamp;P1;durP1;ratioP1;P2;durP2;ratioP2
11078;SDS011;5592;49.234;7.268;2023-01-28T00:00:45;4.80;;;4.27;;
11078;SDS011;5592;49.234;7.268;2023-01-28T00:03:11;8.63;;;4.20;;
11078;SDS011;5592;49.234;7.268;2023-01-28T00:05:37;5.63;;;4.60;;
11078;SDS011;5592;49.234;7.268;2023-01-28T00:08:02;5.37;;;4.40;;
11078;SDS011;5592;49.234;7.268;2023-01-28T00:10:28;5.10;;;4.30;;
11078;SDS011;5592;49.234;7.268;2023-01-28T00:12:53;6.00;;;4.30;;
11078;SDS011;5592;49.234;7.268;2023-01-28T00:15:19;6.67;;;5.03;;
11078;SDS011;5592;49.234;7.268;2023-01-28T00:17:45;6.17;;;4.90;;
11078;SDS011;5592;49.234;7.268;2023-01-28T00:20:10;5.97;;;4.80;;
11078;SDS011;5592;49.234;7.268;2023-01-28T00:22:36;6.50;;;4.30;;
11078;SDS011;5592;49.234;7.268;2023-01-28T00:25:02;7.33;;;4.37;;
11078;SDS011;5592;49.234;7.268;2023-01-28T00:27:28;5.57;;;4.40;;
11078;SDS011;5592;49.234;7.268;2023-01-28T00:29:53;5.43;;;4.17;;
11078;SDS011;5592;49.234;7.268;2023-01-28T00:32:19;5.50;;;4.60;;
11078;SDS011;5592;49.234;7.268;2023-01-28T00:34:45;7.33;;;4.80;;
11078;SDS011;5592;49.234;7.268;2023-01-28T00:37:10;6.00;;;4.73;;
11078;SDS011;5592;49.234;7.268;2023-01-28T00:39:36;4.87;;;4.03;;
11078;SDS011;5592;49.234;7.268;2023-01-28T00:42:01;6.17;;;4.50;;
11078;SDS011;5592;49.234;7.268;2023-01-28T00:44:27;5.40;;;3.97;;
11078;SDS011;5592;49.234;7.268;2023-01-28T00:46:53;4.90;;;3.60;;
11078;SDS011;5592;49.234;7.268;2023-01-28T00:49:18;5.27;;;3.97;;
11078;SDS011;5592;49.234;7.268;2023-01-28T00:51:44;5.60;;;3.20;;
11078;SDS011;5592;49.234;7.268;2023-01-28T00:54:11;4.23;;;3.10;;
11078;SDS011;5592;49.234;7.268;2023-01-28T00:56:37;3.30;;;2.97;;
11078;SDS011;5592;49.234;7.268;2023-01-28T00:59:03;3.20;;;2.87;;
11078;SDS011;5592;49.234;7.268;2023-01-28T01:01:29;3.53;;;2.97;;
11078;SDS011;5592;49.234;7.268;2023-01-28T01:03:54;3.30;;;3.00;;
11078;SDS011;5592;49.234;7.268;2023-01-28T01:06:30;2.70;;;2.50;;
11078;SDS011;5592;49.234;7.268;2023-01-28T01:09:01;4.10;;;2.83;;
11078;SDS011;5592;49.234;7.268;2023-01-28T01:11:28;2.50;;;2.30;;
11078;SDS011;5592;49.234;7.268;2023-01-28T01:13:55;2.80;;;2.43;;
11078;SDS011;5592;49.234;7.268;2023-01-28T01:16:23;2.80;;;2.57;;
11078;SDS011;5592;49.234;7.268;2023-01-28T01:18:54;2.57;;;2.10;;
11078;SDS011;5592;49.234;7.268;2023-01-28T01:21:22;3.40;;;2.50;;
11078;SDS011;5592;49.234;7.268;2023-01-28T01:23:49;2.67;;;2.43;;
11078;SDS011;5592;49.234;7.268;2023-01-28T01:26:15;3.20;;;2.53;;
11078;SDS011;5592;49.234;7.268;2023-01-28T01:28:41;2.97;;;2.37;;
11078;SDS011;5592;49.234;7.268;2023-01-28T01:31:09;2.80;;;2.37;;
11078;SDS011;5592;49.234;7.268;2023-01-28T01:33:38;3.53;;;3.00;;
11078;SDS011;5592;49.234;7.268;2023-01-28T01:36:05;3.60;;;2.60;;
11078;SDS011;5592;49.234;7.268;2023-01-28T01:38:31;2.47;;;2.23;;
11078;SDS011;5592;49.234;7.268;2023-01-28T01:40:57;4.10;;;2.60;;
11078;SDS011;5592;49.234;7.268;2023-01-28T01:43:24;2.80;;;2.40;;
11078;SDS011;5592;49.234;7.268;2023-01-28T01:46:09;3.13;;;2.53;;
11078;SDS011;5592;49.234;7.268;2023-01-28T01:48:36;2.57;;;2.30;;
11078;SDS011;5592;49.234;7.268;2023-01-28T01:51:06;3.20;;;2.50;;
11078;SDS011;5592;49.234;7.268;2023-01-28T01:53:38;3.57;;;2.57;;
11078;SDS011;5592;49.234;7.268;2023-01-28T01:56:08;3.70;;;2.70;;
11078;SDS011;5592;49.234;7.268;2023-01-28T01:58:37;4.27;;;2.60;;
11078;SDS011;5592;49.234;7.268;2023-01-28T02:01:06;4.37;;;3.20;;
11078;SDS011;5592;49.234;7.268;2023-01-28T02:06:30;4.37;;;3.97;;
11078;SDS011;5592;49.234;7.268;2023-01-28T02:08:57;4.87;;;3.43;;
11078;SDS011;5592;49.234;7.268;2023-01-28T02:11:24;4.37;;;3.70;;
11078;SDS011;5592;49.234;7.268;2023-01-28T02:13:53;5.67;;;4.03;;
11078;SDS011;5592;49.234;7.268;2023-01-28T02:16:21;8.43;;;3.73;;
11078;SDS011;5592;49.234;7.268;2023-01-28T02:18:48;4.87;;;3.63;;
11078;SDS011;5592;49.234;7.268;2023-01-28T02:23:49;7.20;;;3.27;;
11078;SDS011;5592;49.234;7.268;2023-01-28T02:35:23;5.90;;;3.67;;
11078;SDS011;5592;49.234;7.268;2023-01-28T02:38:02;3.83;;;3.43;;
11078;SDS011;5592;49.234;7.268;2023-01-28T02:40:33;5.50;;;3.97;;
11078;SDS011;5592;49.234;7.268;2023-01-28T02:43:39;8.50;;;3.93;;
11078;SDS011;5592;49.234;7.268;2023-01-28T02:49:05;4.33;;;3.80;;
11078;SDS011;5592;49.234;7.268;2023-01-28T02:57:53;6.00;;;4.67;;
11078;SDS011;5592;49.234;7.268;2023-01-28T03:00:25;7.70;;;3.80;;
11078;SDS011;5592;49.234;7.268;2023-01-28T03:03:19;5.27;;;3.93;;
11078;SDS011;5592;49.234;7.268;2023-01-28T03:05:57;6.30;;;4.20;;
11078;SDS011;5592;49.234;7.268;2023-01-28T03:08:48;6.67;;;4.20;;
11078;SDS011;5592;49.234;7.268;2023-01-28T03:11:42;4.20;;;3.80;;
11078;SDS011;5592;49.234;7.268;2023-01-28T03:14:31;5.77;;;4.17;;
11078;SDS011;5592;49.234;7.268;2023-01-28T03:17:23;6.10;;;4.00;;
11078;SDS011;5592;49.234;7.268;2023-01-28T03:20:14;8.83;;;4.63;;
11078;SDS011;5592;49.234;7.268;2023-01-28T03:23:00;6.57;;;4.60;;
11078;SDS011;5592;49.234;7.268;2023-01-28T03:25:49;6.20;;;4.77;;
11078;SDS011;5592;49.234;7.268;2023-01-28T03:28:39;6.43;;;4.73;;
11078;SDS011;5592;49.234;7.268;2023-01-28T03:31:25;6.57;;;5.20;;
11078;SDS011;5592;49.234;7.268;2023-01-28T03:34:09;6.73;;;4.50;;
11078;SDS011;5592;49.234;7.268;2023-01-28T03:36:54;7.40;;;4.80;;
11078;SDS011;5592;49.234;7.268;2023-01-28T03:39:23;12.70;;;5.60;;
11078;SDS011;5592;49.234;7.268;2023-01-28T03:42:01;6.27;;;4.43;;
11078;SDS011;5592;49.234;7.268;2023-01-28T03:44:32;7.50;;;5.60;;
11078;SDS011;5592;49.234;7.268;2023-01-28T03:47:20;7.30;;;4.97;;
11078;SDS011;5592;49.234;7.268;2023-01-28T03:49:48;5.43;;;4.37;;
11078;SDS011;5592;49.234;7.268;2023-01-28T03:52:16;5.83;;;4.47;;
11078;SDS011;5592;49.234;7.268;2023-01-28T03:54:49;8.13;;;3.90;;
11078;SDS011;5592;49.234;7.268;2023-01-28T03:57:17;5.07;;;4.10;;
11078;SDS011;5592;49.234;7.268;2023-01-28T03:59:44;5.43;;;4.37;;
11078;SDS011;5592;49.234;7.268;2023-01-28T04:02:10;6.37;;;4.37;;
11078;SDS011;5592;49.234;7.268;2023-01-28T04:04:37;5.57;;;3.90;;
11078;SDS011;5592;49.234;7.268;2023-01-28T04:07:03;7.83;;;4.00;;
11078;SDS011;5592;49.234;7.268;2023-01-28T04:09:29;5.13;;;3.53;;
11078;SDS011;5592;49.234;7.268;2023-01-28T04:11:55;5.80;;;4.33;;
11078;SDS011;5592;49.234;7.268;2023-01-28T04:14:20;6.17;;;3.60;;
11078;SDS011;5592;49.234;7.268;2023-01-28T04:16:46;6.33;;;3.93;;
11078;SDS011;5592;49.234;7.268;2023-01-28T04:19:12;4.67;;;3.40;;
11078;SDS011;5592;49.234;7.268;2023-01-28T04:21:37;5.57;;;3.70;;
11078;SDS011;5592;49.234;7.268;2023-01-28T04:24:03;5.83;;;3.80;;
11078;SDS011;5592;49.234;7.268;2023-01-28T04:26:31;5.90;;;3.83;;
11078;SDS011;5592;49.234;7.268;2023-01-28T04:28:56;5.70;;;3.63;;
11078;SDS011;5592;49.234;7.268;2023-01-28T04:31:22;6.40;;;4.07;;
11078;SDS011;5592;49.234;7.268;2023-01-28T04:33:48;5.47;;;3.97;;
11078;SDS011;5592;49.234;7.268;2023-01-28T04:36:14;4.30;;;3.50;;
11078;SDS011;5592;49.234;7.268;2023-01-28T04:38:40;4.60;;;2.73;;
11078;SDS011;5592;49.234;7.268;2023-01-28T04:41:06;4.70;;;3.33;;
11078;SDS011;5592;49.234;7.268;2023-01-28T04:43:32;4.60;;;3.40;;
11078;SDS011;5592;49.234;7.268;2023-01-28T04:45:57;6.13;;;3.90;;
11078;SDS011;5592;49.234;7.268;2023-01-28T04:48:23;5.40;;;4.23;;
11078;SDS011;5592;49.234;7.268;2023-01-28T04:50:48;6.27;;;3.63;;
11078;SDS011;5592;49.234;7.268;2023-01-28T04:53:14;4.87;;;3.60;;
11078;SDS011;5592;49.234;7.268;2023-01-28T04:55:40;5.50;;;3.53;;
11078;SDS011;5592;49.234;7.268;2023-01-28T04:58:05;6.23;;;3.60;;
11078;SDS011;5592;49.234;7.268;2023-01-28T05:00:31;4.77;;;3.70;;
11078;SDS011;5592;49.234;7.268;2023-01-28T05:02:57;6.10;;;3.97;;
11078;SDS011;5592;49.234;7.268;2023-01-28T05:05:23;6.10;;;4.07;;
11078;SDS011;5592;49.234;7.268;2023-01-28T05:07:52;5.97;;;4.00;;
11078;SDS011;5592;49.234;7.268;2023-01-28T05:10:19;6.17;;;4.10;;
11078;SDS011;5592;49.234;7.268;2023-01-28T05:12:46;5.40;;;3.60;;
11078;SDS011;5592;49.234;7.268;2023-01-28T05:15:12;4.10;;;3.53;;
11078;SDS011;5592;49.234;7.268;2023-01-28T05:17:39;3.87;;;3.50;;
11078;SDS011;5592;49.234;7.268;2023-01-28T05:20:05;5.47;;;3.47;;
11078;SDS011;5592;49.234;7.268;2023-01-28T05:22:30;5.73;;;3.40;;
11078;SDS011;5592;49.234;7.268;2023-01-28T05:24:56;5.20;;;3.93;;
11078;SDS011;5592;49.234;7.268;2023-01-28T05:27:22;3.83;;;2.80;;
11078;SDS011;5592;49.234;7.268;2023-01-28T05:29:47;3.70;;;2.97;;
11078;SDS011;5592;49.234;7.268;2023-01-28T05:32:13;2.40;;;2.20;;
11078;SDS011;5592;49.234;7.268;2023-01-28T05:34:39;4.00;;;2.90;;
11078;SDS011;5592;49.234;7.268;2023-01-28T05:37:04;4.90;;;2.97;;
11078;SDS011;5592;49.234;7.268;2023-01-28T05:39:30;4.40;;;2.80;;
11078;SDS011;5592;49.234;7.268;2023-01-28T05:41:56;6.70;;;3.40;;
11078;SDS011;5592;49.234;7.268;2023-01-28T05:44:22;4.70;;;3.30;;
11078;SDS011;5592;49.234;7.268;2023-01-28T05:46:47;3.40;;;2.77;;
11078;SDS011;5592;49.234;7.268;2023-01-28T05:49:13;2.60;;;2.30;;
11078;SDS011;5592;49.234;7.268;2023-01-28T05:51:39;3.07;;;2.40;;
11078;SDS011;5592;49.234;7.268;2023-01-28T05:54:05;3.93;;;2.33;;
11078;SDS011;5592;49.234;7.268;2023-01-28T05:56:31;2.43;;;2.23;;
11078;SDS011;5592;49.234;7.268;2023-01-28T05:58:58;5.90;;;2.67;;
11078;SDS011;5592;49.234;7.268;2023-01-28T06:01:24;2.80;;;2.20;;
11078;SDS011;5592;49.234;7.268;2023-01-28T06:03:50;2.37;;;2.17;;
11078;SDS011;5592;49.234;7.268;2023-01-28T06:06:15;3.83;;;2.47;;
11078;SDS011;5592;49.234;7.268;2023-01-28T06:08:41;2.93;;;2.40;;
11078;SDS011;5592;49.234;7.268;2023-01-28T06:11:06;3.73;;;2.30;;
11078;SDS011;5592;49.234;7.268;2023-01-28T06:13:32;5.70;;;2.70;;
11078;SDS011;5592;49.234;7.268;2023-01-28T06:15:58;2.97;;;2.37;;
11078;SDS011;5592;49.234;7.268;2023-01-28T06:18:24;4.63;;;2.93;;
11078;SDS011;5592;49.234;7.268;2023-01-28T06:20:56;3.40;;;2.80;;
11078;SDS011;5592;49.234;7.268;2023-01-28T06:23:21;3.83;;;2.53;;
11078;SDS011;5592;49.234;7.268;2023-01-28T06:25:47;2.60;;;2.40;;
11078;SDS011;5592;49.234;7.268;2023-01-28T06:28:18;4.63;;;2.60;;
11078;SDS011;5592;49.234;7.268;2023-01-28T06:30:43;3.30;;;2.50;;
11078;SDS011;5592;49.234;7.268;2023-01-28T06:33:16;3.07;;;2.27;;
11078;SDS011;5592;49.234;7.268;2023-01-28T06:35:45;2.73;;;2.40;;
11078;SDS011;5592;49.234;7.268;2023-01-28T06:38:11;3.90;;;2.43;;
11078;SDS011;5592;49.234;7.268;2023-01-28T06:40:37;2.70;;;2.50;;
11078;SDS011;5592;49.234;7.268;2023-01-28T06:43:03;2.90;;;1.93;;
11078;SDS011;5592;49.234;7.268;2023-01-28T06:45:30;4.53;;;2.73;;
11078;SDS011;5592;49.234;7.268;2023-01-28T06:47:56;3.13;;;2.47;;
11078;SDS011;5592;49.234;7.268;2023-01-28T06:50:21;4.87;;;2.00;;
11078;SDS011;5592;49.234;7.268;2023-01-28T06:52:47;2.53;;;2.13;;
11078;SDS011;5592;49.234;7.268;2023-01-28T06:55:13;2.20;;;2.00;;
11078;SDS011;5592;49.234;7.268;2023-01-28T06:57:39;3.53;;;1.90;;
11078;SDS011;5592;49.234;7.268;2023-01-28T07:00:06;3.20;;;2.60;;
11078;SDS011;5592;49.234;7.268;2023-01-28T07:02:35;2.67;;;2.30;;
11078;SDS011;5592;49.234;7.268;2023-01-28T07:05:01;4.90;;;2.97;;
11078;SDS011;5592;49.234;7.268;2023-01-28T07:07:28;3.70;;;2.83;;
11078;SDS011;5592;49.234;7.268;2023-01-28T07:09:53;6.43;;;3.30;;
11078;SDS011;5592;49.234;7.268;2023-01-28T07:12:19;3.03;;;2.47;;
11078;SDS011;5592;49.234;7.268;2023-01-28T07:14:44;3.33;;;2.83;;
11078;SDS011;5592;49.234;7.268;2023-01-28T07:17:10;3.57;;;2.40;;
11078;SDS011;5592;49.234;7.268;2023-01-28T07:19:36;4.07;;;3.07;;
11078;SDS011;5592;49.234;7.268;2023-01-28T07:22:01;3.57;;;3.00;;
11078;SDS011;5592;49.234;7.268;2023-01-28T07:24:27;3.20;;;2.87;;
11078;SDS011;5592;49.234;7.268;2023-01-28T07:26:54;4.40;;;3.17;;
11078;SDS011;5592;49.234;7.268;2023-01-28T07:29:19;4.83;;;3.13;;
11078;SDS011;5592;49.234;7.268;2023-01-28T07:31:45;3.43;;;2.13;;
11078;SDS011;5592;49.234;7.268;2023-01-28T07:34:11;3.23;;;2.60;;
11078;SDS011;5592;49.234;7.268;2023-01-28T07:36:37;3.03;;;2.50;;
11078;SDS011;5592;49.234;7.268;2023-01-28T07:39:03;4.43;;;2.47;;
11078;SDS011;5592;49.234;7.268;2023-01-28T07:41:28;3.60;;;2.53;;
11078;SDS011;5592;49.234;7.268;2023-01-28T07:43:54;3.40;;;2.60;;
11078;SDS011;5592;49.234;7.268;2023-01-28T07:46:20;5.30;;;2.80;;
11078;SDS011;5592;49.234;7.268;2023-01-28T07:48:46;5.20;;;2.80;;
11078;SDS011;5592;49.234;7.268;2023-01-28T07:51:11;4.67;;;2.50;;
11078;SDS011;5592;49.234;7.268;2023-01-28T07:53:37;3.30;;;2.30;;
11078;SDS011;5592;49.234;7.268;2023-01-28T07:56:03;2.23;;;2.03;;
11078;SDS011;5592;49.234;7.268;2023-01-28T07:58:30;5.00;;;2.47;;
11078;SDS011;5592;49.234;7.268;2023-01-28T08:00:58;3.30;;;2.30;;
11078;SDS011;5592;49.234;7.268;2023-01-28T08:03:25;3.03;;;2.10;;
11078;SDS011;5592;49.234;7.268;2023-01-28T08:05:52;3.90;;;2.40;;
11078;SDS011;5592;49.234;7.268;2023-01-28T08:08:19;2.40;;;2.20;;
11078;SDS011;5592;49.234;7.268;2023-01-28T08:10:46;4.40;;;2.80;;
11078;SDS011;5592;49.234;7.268;2023-01-28T08:13:12;3.60;;;2.43;;
11078;SDS011;5592;49.234;7.268;2023-01-28T08:15:39;4.73;;;2.70;;
11078;SDS011;5592;49.234;7.268;2023-01-28T08:18:06;2.27;;;2.00;;
11078;SDS011;5592;49.234;7.268;2023-01-28T08:20:33;3.33;;;2.40;;
11078;SDS011;5592;49.234;7.268;2023-01-28T08:23:07;5.00;;;2.30;;
11078;SDS011;5592;49.234;7.268;2023-01-28T08:25:35;3.63;;;2.30;;
11078;SDS011;5592;49.234;7.268;2023-01-28T08:28:01;2.33;;;1.80;;
11078;SDS011;5592;49.234;7.268;2023-01-28T08:30:28;3.33;;;1.90;;
11078;SDS011;5592;49.234;7.268;2023-01-28T08:32:54;3.80;;;2.70;;
11078;SDS011;5592;49.234;7.268;2023-01-28T08:35:22;5.80;;;2.80;;
11078;SDS011;5592;49.234;7.268;2023-01-28T08:37:48;3.43;;;2.43;;
11078;SDS011;5592;49.234;7.268;2023-01-28T08:40:14;3.73;;;2.47;;
11078;SDS011;5592;49.234;7.268;2023-01-28T08:42:45;3.10;;;2.20;;
11078;SDS011;5592;49.234;7.268;2023-01-28T08:45:14;5.03;;;2.20;;
11078;SDS011;5592;49.234;7.268;2023-01-28T08:47:48;2.20;;;1.80;;
11078;SDS011;5592;49.234;7.268;2023-01-28T08:50:13;2.30;;;1.70;;
11078;SDS011;5592;49.234;7.268;2023-01-28T08:52:39;2.83;;;2.13;;
11078;SDS011;5592;49.234;7.268;2023-01-28T08:55:08;2.80;;;1.90;;
11078;SDS011;5592;49.234;7.268;2023-01-28T08:57:34;2.80;;;2.30;;
11078;SDS011;5592;49.234;7.268;2023-01-28T08:59:59;2.53;;;1.80;;
11078;SDS011;5592;49.234;7.268;2023-01-28T09:02:25;4.47;;;1.93;;
11078;SDS011;5592;49.234;7.268;2023-01-28T09:04:51;3.67;;;1.93;;
11078;SDS011;5592;49.234;7.268;2023-01-28T09:07:16;1.80;;;1.57;;
11078;SDS011;5592;49.234;7.268;2023-01-28T09:09:42;2.40;;;1.93;;
11078;SDS011;5592;49.234;7.268;2023-01-28T09:12:09;4.57;;;2.10;;
11078;SDS011;5592;49.234;7.268;2023-01-28T09:14:35;2.67;;;1.77;;
11078;SDS011;5592;49.234;7.268;2023-01-28T09:17:00;2.20;;;2.00;;
11078;SDS011;5592;49.234;7.268;2023-01-28T09:19:26;6.03;;;2.03;;
11078;SDS011;5592;49.234;7.268;2023-01-28T09:21:53;4.63;;;2.37;;
11078;SDS011;5592;49.234;7.268;2023-01-28T09:24:19;2.40;;;1.93;;
11078;SDS011;5592;49.234;7.268;2023-01-28T09:26:47;2.30;;;1.70;;
11078;SDS011;5592;49.234;7.268;2023-01-28T09:29:13;3.43;;;1.83;;
11078;SDS011;5592;49.234;7.268;2023-01-28T09:31:39;1.93;;;1.70;;
11078;SDS011;5592;49.234;7.268;2023-01-28T09:34:05;2.77;;;1.70;;
11078;SDS011;5592;49.234;7.268;2023-01-28T09:36:31;2.03;;;1.83;;
11078;SDS011;5592;49.234;7.268;2023-01-28T09:38:57;6.03;;;2.20;;
11078;SDS011;5592;49.234;7.268;2023-01-28T09:41:24;3.30;;;2.33;;
11078;SDS011;5592;49.234;7.268;2023-01-28T09:43:58;4.07;;;1.90;;
11078;SDS011;5592;49.234;7.268;2023-01-28T09:46:33;3.70;;;1.83;;
11078;SDS011;5592;49.234;7.268;2023-01-28T09:49:01;2.40;;;1.73;;
11078;SDS011;5592;49.234;7.268;2023-01-28T09:51:40;1.93;;;1.70;;
11078;SDS011;5592;49.234;7.268;2023-01-28T09:57:02;2.60;;;2.00;;
11078;SDS011;5592;49.234;7.268;2023-01-28T09:59:32;3.80;;;2.00;;
11078;SDS011;5592;49.234;7.268;2023-01-28T10:05:49;3.00;;;2.20;;
11078;SDS011;5592;49.234;7.268;2023-01-28T10:08:21;1.90;;;1.80;;
11078;SDS011;5592;49.234;7.268;2023-01-28T10:11:02;3.23;;;2.17;;
11078;SDS011;5592;49.234;7.268;2023-01-28T10:14:00;3.90;;;2.13;;
11078;SDS011;5592;49.234;7.268;2023-01-28T10:16:56;3.70;;;2.13;;
11078;SDS011;5592;49.234;7.268;2023-01-28T10:19:40;4.13;;;2.47;;
11078;SDS011;5592;49.234;7.268;2023-01-28T10:22:21;2.70;;;2.27;;
11078;SDS011;5592;49.234;7.268;2023-01-28T10:24:54;2.60;;;2.03;;
11078;SDS011;5592;49.234;7.268;2023-01-28T10:27:27;2.30;;;2.10;;
11078;SDS011;5592;49.234;7.268;2023-01-28T10:29:54;3.40;;;2.53;;
11078;SDS011;5592;49.234;7.268;2023-01-28T10:32:26;4.13;;;2.17;;
11078;SDS011;5592;49.234;7.268;2023-01-28T10:34:55;4.23;;;2.50;;
11078;SDS011;5592;49.234;7.268;2023-01-28T10:37:26;10.03;;;2.17;;
11078;SDS011;5592;49.234;7.268;2023-01-28T10:39:54;3.97;;;2.53;;
11078;SDS011;5592;49.234;7.268;2023-01-28T10:44:56;3.30;;;2.60;;
11078;SDS011;5592;49.234;7.268;2023-01-28T10:50:31;2.97;;;2.33;;
11078;SDS011;5592;49.234;7.268;2023-01-28T10:52:57;3.30;;;2.13;;
11078;SDS011;5592;49.234;7.268;2023-01-28T10:55:33;2.10;;;1.90;;
11078;SDS011;5592;49.234;7.268;2023-01-28T10:58:15;3.20;;;2.00;;
11078;SDS011;5592;49.234;7.268;2023-01-28T11:00:44;4.97;;;2.07;;
11078;SDS011;5592;49.234;7.268;2023-01-28T11:03:17;2.80;;;2.40;;
11078;SDS011;5592;49.234;7.268;2023-01-28T11:05:50;3.00;;;1.90;;
11078;SDS011;5592;49.234;7.268;2023-01-28T11:08:20;2.73;;;2.10;;
11078;SDS011;5592;49.234;7.268;2023-01-28T11:10:48;2.57;;;1.97;;
11078;SDS011;5592;49.234;7.268;2023-01-28T11:15:46;2.50;;;2.17;;
11078;SDS011;5592;49.234;7.268;2023-01-28T11:18:18;2.60;;;2.07;;
11078;SDS011;5592;49.234;7.268;2023-01-28T11:20:53;3.00;;;2.40;;
11078;SDS011;5592;49.234;7.268;2023-01-28T11:23:25;3.70;;;2.10;;
11078;SDS011;5592;49.234;7.268;2023-01-28T11:26:00;4.30;;;2.47;;
11078;SDS011;5592;49.234;7.268;2023-01-28T11:28:39;2.33;;;2.10;;
11078;SDS011;5592;49.234;7.268;2023-01-28T11:31:06;3.97;;;2.30;;
11078;SDS011;5592;49.234;7.268;2023-01-28T11:36:23;4.90;;;2.50;;
11078;SDS011;5592;49.234;7.268;2023-01-28T11:41:18;2.87;;;2.20;;
11078;SDS011;5592;49.234;7.268;2023-01-28T11:49:18;3.40;;;2.73;;
11078;SDS011;5592;49.234;7.268;2023-01-28T11:51:54;2.97;;;2.43;;
11078;SDS011;5592;49.234;7.268;2023-01-28T11:54:46;2.10;;;1.90;;
11078;SDS011;5592;49.234;7.268;2023-01-28T11:57:23;2.83;;;2.57;;
11078;SDS011;5592;49.234;7.268;2023-01-28T12:02:52;3.00;;;2.20;;
11078;SDS011;5592;49.234;7.268;2023-01-28T12:05:39;4.20;;;2.30;;
11078;SDS011;5592;49.234;7.268;2023-01-28T12:08:26;3.30;;;2.47;;
11078;SDS011;5592;49.234;7.268;2023-01-28T12:22:01;2.73;;;2.20;;
11078;SDS011;5592;49.234;7.268;2023-01-28T12:33:13;3.23;;;2.40;;
11078;SDS011;5592;49.234;7.268;2023-01-28T12:36:18;2.50;;;2.30;;
11078;SDS011;5592;49.234;7.268;2023-01-28T12:39:19;5.00;;;3.47;;
11078;SDS011;5592;49.234;7.268;2023-01-28T12:41:47;5.03;;;3.00;;
11078;SDS011;5592;49.234;7.268;2023-01-28T12:44:19;4.23;;;2.50;;
11078;SDS011;5592;49.234;7.268;2023-01-28T12:46:54;12.37;;;4.40;;
11078;SDS011;5592;49.234;7.268;2023-01-28T12:49:34;3.40;;;2.30;;
11078;SDS011;5592;49.234;7.268;2023-01-28T12:52:08;3.57;;;2.50;;
11078;SDS011;5592;49.234;7.268;2023-01-28T12:55:05;6.40;;;2.43;;
11078;SDS011;5592;49.234;7.268;2023-01-28T12:57:57;2.90;;;2.63;;
11078;SDS011;5592;49.234;7.268;2023-01-28T13:03:20;3.37;;;2.70;;
11078;SDS011;5592;49.234;7.268;2023-01-28T13:05:59;2.77;;;2.43;;
11078;SDS011;5592;49.234;7.268;2023-01-28T13:08:30;2.33;;;2.00;;
11078;SDS011;5592;49.234;7.268;2023-01-28T13:10:56;3.17;;;2.40;;
11078;SDS011;5592;49.234;7.268;2023-01-28T13:15:58;2.83;;;2.50;;
11078;SDS011;5592;49.234;7.268;2023-01-28T13:20:59;2.10;;;1.90;;
11078;SDS011;5592;49.234;7.268;2023-01-28T13:25:55;4.10;;;2.13;;
11078;SDS011;5592;49.234;7.268;2023-01-28T13:28:32;7.00;;;2.97;;
11078;SDS011;5592;49.234;7.268;2023-01-28T13:31:07;3.80;;;2.17;;
11078;SDS011;5592;49.234;7.268;2023-01-28T13:33:41;3.17;;;2.23;;
11078;SDS011;5592;49.234;7.268;2023-01-28T13:36:23;2.20;;;2.00;;
11078;SDS011;5592;49.234;7.268;2023-01-28T13:41:42;2.60;;;2.00;;
11078;SDS011;5592;49.234;7.268;2023-01-28T13:44:29;2.57;;;2.00;;
11078;SDS011;5592;49.234;7.268;2023-01-28T13:46:58;2.10;;;1.87;;
11078;SDS011;5592;49.234;7.268;2023-01-28T13:49:46;3.00;;;1.80;;
11078;SDS011;5592;49.234;7.268;2023-01-28T13:52:34;2.63;;;2.27;;
11078;SDS011;5592;49.234;7.268;2023-01-28T14:03:01;2.20;;;1.33;;
11078;SDS011;5592;49.234;7.268;2023-01-28T14:05:36;1.90;;;1.60;;
11078;SDS011;5592;49.234;7.268;2023-01-28T14:16:54;3.93;;;1.73;;
11078;SDS011;5592;49.234;7.268;2023-01-28T14:19:28;2.20;;;1.97;;
11078;SDS011;5592;49.234;7.268;2023-01-28T14:21:57;1.60;;;1.50;;
11078;SDS011;5592;49.234;7.268;2023-01-28T14:24:23;3.33;;;1.80;;
11078;SDS011;5592;49.234;7.268;2023-01-28T14:27:34;2.73;;;2.00;;
11078;SDS011;5592;49.234;7.268;2023-01-28T14:30:02;2.00;;;1.83;;
11078;SDS011;5592;49.234;7.268;2023-01-28T14:32:42;1.70;;;1.57;;
11078;SDS011;5592;49.234;7.268;2023-01-28T14:35:14;1.77;;;1.60;;
11078;SDS011;5592;49.234;7.268;2023-01-28T14:37:43;1.70;;;1.60;;
11078;SDS011;5592;49.234;7.268;2023-01-28T14:40:13;2.37;;;1.53;;
11078;SDS011;5592;49.234;7.268;2023-01-28T14:42:50;2.27;;;1.77;;
11078;SDS011;5592;49.234;7.268;2023-01-28T14:58:40;1.67;;;1.57;;
11078;SDS011;5592;49.234;7.268;2023-01-28T15:01:18;2.97;;;1.63;;
11078;SDS011;5592;49.234;7.268;2023-01-28T15:03:46;2.83;;;1.80;;
11078;SDS011;5592;49.234;7.268;2023-01-28T15:06:13;3.00;;;1.80;;
11078;SDS011;5592;49.234;7.268;2023-01-28T15:08:41;2.13;;;1.70;;
11078;SDS011;5592;49.234;7.268;2023-01-28T15:11:10;4.37;;;1.80;;
11078;SDS011;5592;49.234;7.268;2023-01-28T15:13:45;7.77;;;1.70;;
11078;SDS011;5592;49.234;7.268;2023-01-28T15:16:23;1.83;;;1.40;;
11078;SDS011;5592;49.234;7.268;2023-01-28T15:18:53;3.03;;;1.70;;
11078;SDS011;5592;49.234;7.268;2023-01-28T15:21:20;2.60;;;1.73;;
11078;SDS011;5592;49.234;7.268;2023-01-28T15:23:47;1.93;;;1.73;;
11078;SDS011;5592;49.234;7.268;2023-01-28T15:26:31;2.13;;;1.80;;
11078;SDS011;5592;49.234;7.268;2023-01-28T15:28:58;2.33;;;1.87;;
11078;SDS011;5592;49.234;7.268;2023-01-28T15:31:26;3.10;;;2.13;;
11078;SDS011;5592;49.234;7.268;2023-01-28T15:34:08;2.17;;;1.97;;
11078;SDS011;5592;49.234;7.268;2023-01-28T15:36:37;3.90;;;2.50;;
11078;SDS011;5592;49.234;7.268;2023-01-28T15:39:02;1.70;;;1.60;;
11078;SDS011;5592;49.234;7.268;2023-01-28T15:41:31;4.03;;;2.13;;
11078;SDS011;5592;49.234;7.268;2023-01-28T15:43:58;2.33;;;1.80;;
11078;SDS011;5592;49.234;7.268;2023-01-28T15:46:24;5.37;;;3.30;;
11078;SDS011;5592;49.234;7.268;2023-01-28T15:49:00;4.70;;;2.93;;
11078;SDS011;5592;49.234;7.268;2023-01-28T15:51:27;4.30;;;2.90;;
11078;SDS011;5592;49.234;7.268;2023-01-28T15:53:59;3.70;;;2.00;;
11078;SDS011;5592;49.234;7.268;2023-01-28T15:56:30;3.30;;;2.17;;
11078;SDS011;5592;49.234;7.268;2023-01-28T15:59:06;2.10;;;1.90;;
11078;SDS011;5592;49.234;7.268;2023-01-28T16:01:33;7.03;;;1.53;;
11078;SDS011;5592;49.234;7.268;2023-01-28T16:04:00;2.80;;;1.63;;
11078;SDS011;5592;49.234;7.268;2023-01-28T16:06:31;2.10;;;1.80;;
11078;SDS011;5592;49.234;7.268;2023-01-28T16:09:00;3.00;;;2.13;;
11078;SDS011;5592;49.234;7.268;2023-01-28T16:11:29;2.13;;;1.60;;
11078;SDS011;5592;49.234;7.268;2023-01-28T16:14:05;2.00;;;1.80;;
11078;SDS011;5592;49.234;7.268;2023-01-28T16:16:34;2.57;;;2.10;;
11078;SDS011;5592;49.234;7.268;2023-01-28T16:19:03;3.17;;;1.70;;
11078;SDS011;5592;49.234;7.268;2023-01-28T16:21:31;2.50;;;1.80;;
11078;SDS011;5592;49.234;7.268;2023-01-28T16:24:24;2.40;;;1.90;;
11078;SDS011;5592;49.234;7.268;2023-01-28T16:27:18;2.00;;;1.80;;
11078;SDS011;5592;49.234;7.268;2023-01-28T16:29:46;1.33;;;1.17;;
11078;SDS011;5592;49.234;7.268;2023-01-28T16:32:28;3.00;;;1.80;;
11078;SDS011;5592;49.234;7.268;2023-01-28T16:34:56;1.83;;;1.73;;
11078;SDS011;5592;49.234;7.268;2023-01-28T16:37:22;2.43;;;2.10;;
11078;SDS011;5592;49.234;7.268;2023-01-28T16:39:48;2.10;;;1.67;;
11078;SDS011;5592;49.234;7.268;2023-01-28T16:42:13;2.97;;;2.20;;
11078;SDS011;5592;49.234;7.268;2023-01-28T16:44:39;3.03;;;2.30;;
11078;SDS011;5592;49.234;7.268;2023-01-28T16:47:05;3.53;;;2.40;;
11078;SDS011;5592;49.234;7.268;2023-01-28T16:49:30;3.40;;;2.90;;
11078;SDS011;5592;49.234;7.268;2023-01-28T16:51:56;3.97;;;2.40;;
11078;SDS011;5592;49.234;7.268;2023-01-28T16:54:22;6.90;;;2.90;;
11078;SDS011;5592;49.234;7.268;2023-01-28T16:56:47;2.67;;;2.03;;
11078;SDS011;5592;49.234;7.268;2023-01-28T16:59:14;3.50;;;2.23;;
11078;SDS011;5592;49.234;7.268;2023-01-28T17:01:40;2.47;;;2.20;;
11078;SDS011;5592;49.234;7.268;2023-01-28T17:04:07;2.43;;;2.00;;
11078;SDS011;5592;49.234;7.268;2023-01-28T17:06:35;5.63;;;2.70;;
11078;SDS011;5592;49.234;7.268;2023-01-28T17:09:05;2.30;;;2.10;;
11078;SDS011;5592;49.234;7.268;2023-01-28T17:11:31;3.67;;;2.23;;
11078;SDS011;5592;49.234;7.268;2023-01-28T17:13:58;2.97;;;2.00;;